Whiting Field Naval Air Station North Airport
KNSE : now visible

Airfield :











YOU CAN JOIN US ON...

 
LOGIN :

Register | Disclaimer

   EN    FR    IT 

 









Legend :    VFR   Marginal VFR   IFR   Intensive IFR   Very Intensive IFR
Visi :
Ceiling :
>= 8 km
>= 3000ft
5 to 8 km
1000 to 3000 ft
1500m to 5 km
500 to 1000 ft
800 to 1500m
200 to 500 ft
< 800m
< 200 ft
Symbols :   Thunderstorms  Fog  Heavy snow  Heavy precipitations  Wind > 20 kt






- Airport Elevation : 199 ft


KNSE - Whiting Field Naval Air Station North

CURRENT METAR :
  • 050056Z 32004KT 10SM CLR 13/03 A3005 RMK AO2 SLP165 T01280033

EXPIRED METARs :
  • 042356Z 00000KT 10SM FEW250 15/06 A3004 RMK AO2 SLP160 6//// T01500056 10222 20144 55000
  • 042256Z 34007KT 10SM FEW010 22/02 A3003 RMK SLP155 FU FEW010 T02170017

TAF TAF KNSE
Valid from the 04 at 23:00 until the 05 at 23:00 UTC


0423/0523 VRB05KT 9999 SKC QNH3000INS
FM051500 05007KT 9999 FEW250 QNH3005INS
FM051800 08008KT 9999 SCT150 SCT250 QNH3001INS AUTOMATED SENSOR METWATCH 0505 TIL 0512 T07/0512Z T17/0520Z FN20029
KZJX FIR / North America



MET'MAP, your aeronautical weather chart ! - Copyright ORBIFLY December 2007 - Disclaimer

ORBIFLY MET'MAP TEAM :

Programming & Development : Alexandra Zaïnal
Concept & original design : Baudouin d'Aumeries
Assistance for programming : Marc-Olivier Méhu
Technical & hardware support : Manuel Goepfert

Contact : metmap@orbifly.com




SOURCES & CREDITS :

   NOAA       Earth
Advisory